tablestyler.com alexa rank chart, tablestyler.com alexa rank daily changes

tablestyler.com alexa rank chart, tablestyler.com alexa rank daily changes

tablestyler.com
Actual rank:
848 027

RANK HISTORY

Date Rank Diff
2017/10/21 848 027 +1 716
2017/10/20 846 311 +34 525
2017/10/19 811 786 -33 067
2017/10/18 844 853 -9 777
2017/10/17 854 630 -14 761
2017/10/16 869 391 -5 716
2017/10/14 875 107 +36 160
2017/10/13 838 947 +28 562
2017/10/12 810 385 +1 699
2017/10/11 808 686 -21 235
2017/10/10 829 921 +23 675
2017/10/09 806 246 +2 247
2017/10/08 803 999 -36 412
2017/10/07 840 411 +18 501
2017/10/06 821 910 +8 730
2017/10/05 813 180 -11 129
2017/10/04 824 309 -3 545
2017/10/03 827 854 +37 861
2017/10/02 789 993 -5 301
2017/10/01 795 294 +4 828
2017/09/30 790 466 +12 776
2017/09/29 777 690 -7 200
2017/09/28 784 890 -13 859
2017/09/27 798 749 -46 482
2017/09/26 845 231 +20 366
2017/09/25 824 865 +16 980
2017/09/24 807 885 -18 084
2017/09/23 825 969 +57 276
2017/09/22 768 693 +42 325
2017/09/20 726 368 -3 361
2017/09/19 729 729 +10 858
2017/09/18 718 871 +48 391
2017/09/17 670 480 +9 494
2017/09/16 660 986 +14 410
2017/09/15 646 576 +26 886
2017/09/14 619 690 -5 233
2017/09/13 624 923 -7 362
2017/09/12 632 285 +15 039
2017/09/11 617 246 +27 481
2017/09/10 589 765 -2 345
2017/09/09 592 110 +10 373
2017/09/08 581 737 +4 264
2017/09/07 577 473 -1 181
2017/09/06 578 654 -8 079
2017/09/05 586 733 -5 015
2017/09/04 591 748 +207
2017/09/03 591 541 -21 792
2017/09/02 613 333 -10 072
2017/09/01 623 405 +105 862
2017/08/31 517 543 -6 156
2017/08/30 523 699 +3 956
2017/08/29 519 743 -1 415
2017/08/28 521 158 +11 662
2017/08/27 509 496 +8 145
2017/08/26 501 351 -3 861
2017/08/25 505 212 -8 746
2017/08/24 513 958 -14 018
2017/08/23 527 976 -12 923
2017/08/22 540 899

WIDGET FOR YOUR SITE

DOMAINS WITH THE NEAREST RANK

Domain Rank
e-20c.wikispaces.com 848 022
lefo.net 848 023
plasticsmag.com 848 024
comroad.co.jp 848 025
lauragallego.com 848 026
tablestyler.com 848 027
thesoutherncville.com 848 028
thesoftwareround4updatesall.bid 848 029
bob-hairstyle.com 848 030
magiakart.pl 848 031
yoyogi-group.com 848 032

DOMAINS WITH THE NEAREST RANK BY TLD .com

Domain Rank
ibbgenclikmeclisi.com 848 010
ossoryyouth.com 848 012
isokineticsinc.com 848 021
plasticsmag.com 848 024
lauragallego.com 848 026
tablestyler.com 848 027
thesoutherncville.com 848 028
bob-hairstyle.com 848 030
yoyogi-group.com 848 032
muscleflex.com 848 038
russellhendrix.com 848 041